sensor_id;sensor_type;location;lat;lon;timestamp;temperature;humidity
12837;DHT22;6485;51.472;5.268;2022-11-11T15:22:27;12.20;99.90
12837;DHT22;6485;51.472;5.268;2022-11-11T15:24:59;12.20;99.90
12837;DHT22;6485;51.472;5.268;2022-11-11T15:27:36;12.10;99.90
12837;DHT22;6485;51.472;5.268;2022-11-11T15:30:09;12.00;99.90
12837;DHT22;6485;51.472;5.268;2022-11-11T15:32:44;11.90;99.90
12837;DHT22;6485;51.472;5.268;2022-11-11T15:35:23;11.90;99.90
12837;DHT22;6485;51.472;5.268;2022-11-11T15:37:57;11.80;99.90
12837;DHT22;6485;51.472;5.268;2022-11-11T15:40:31;11.80;99.90
12837;DHT22;6485;51.472;5.268;2022-11-11T15:45:49;11.70;99.90
12837;DHT22;6485;51.472;5.268;2022-11-11T15:48:19;11.60;99.90
12837;DHT22;6485;51.472;5.268;2022-11-11T15:50:49;11.60;99.90
12837;DHT22;6485;51.472;5.268;2022-11-11T15:53:22;11.50;99.90
12837;DHT22;6485;51.472;5.268;2022-11-11T15:55:52;11.40;99.90
12837;DHT22;6485;51.472;5.268;2022-11-11T15:58:24;11.30;99.90
12837;DHT22;6485;51.472;5.268;2022-11-11T16:00:54;11.20;99.90
12837;DHT22;6485;51.472;5.268;2022-11-11T16:03:25;11.10;99.90
12837;DHT22;6485;51.472;5.268;2022-11-11T16:05:55;11.10;99.90
12837;DHT22;6485;51.472;5.268;2022-11-11T16:08:25;11.10;99.90
12837;DHT22;6485;51.472;5.268;2022-11-11T16:10:54;11.00;99.90
12837;DHT22;6485;51.472;5.268;2022-11-11T16:13:25;11.00;99.90
12837;DHT22;6485;51.472;5.268;2022-11-11T16:15:55;10.90;99.90
12837;DHT22;6485;51.472;5.268;2022-11-11T16:18:26;10.90;99.90
12837;DHT22;6485;51.472;5.268;2022-11-11T16:20:57;10.80;99.90
12837;DHT22;6485;51.472;5.268;2022-11-11T16:23:29;10.80;99.90
12837;DHT22;6485;51.472;5.268;2022-11-11T16:25:59;10.70;99.90
12837;DHT22;6485;51.472;5.268;2022-11-11T16:28:32;10.60;99.90
12837;DHT22;6485;51.472;5.268;2022-11-11T16:31:18;10.60;99.90
12837;DHT22;6485;51.472;5.268;2022-11-11T16:33:46;10.60;99.90
12837;DHT22;6485;51.472;5.268;2022-11-11T16:36:14;10.60;99.90
12837;DHT22;6485;51.472;5.268;2022-11-11T16:38:44;10.50;99.90
12837;DHT22;6485;51.472;5.268;2022-11-11T16:41:22;10.40;99.90
12837;DHT22;6485;51.472;5.268;2022-11-11T16:43:50;10.40;99.90
12837;DHT22;6485;51.472;5.268;2022-11-11T16:46:38;10.40;99.90
12837;DHT22;6485;51.472;5.268;2022-11-11T16:49:14;10.40;99.90
12837;DHT22;6485;51.472;5.268;2022-11-11T16:51:44;10.40;99.90
12837;DHT22;6485;51.472;5.268;2022-11-11T16:54:15;10.30;99.90
12837;DHT22;6485;51.472;5.268;2022-11-11T16:56:45;10.30;99.90
12837;DHT22;6485;51.472;5.268;2022-11-11T16:59:15;10.20;99.90
12837;DHT22;6485;51.472;5.268;2022-11-11T17:01:44;10.20;99.90
12837;DHT22;6485;51.472;5.268;2022-11-11T17:04:14;10.20;99.90
12837;DHT22;6485;51.472;5.268;2022-11-11T17:06:48;10.10;99.90
12837;DHT22;6485;51.472;5.268;2022-11-11T17:09:35;10.10;99.90
12837;DHT22;6485;51.472;5.268;2022-11-11T17:12:05;10.00;99.90
12837;DHT22;6485;51.472;5.268;2022-11-11T17:14:34;10.00;99.90
12837;DHT22;6485;51.472;5.268;2022-11-11T17:17:02;10.00;99.90
12837;DHT22;6485;51.472;5.268;2022-11-11T17:19:31;9.90;99.90
12837;DHT22;6485;51.472;5.268;2022-11-11T17:22:04;9.80;99.90
12837;DHT22;6485;51.472;5.268;2022-11-11T17:24:35;9.90;99.90
12837;DHT22;6485;51.472;5.268;2022-11-11T17:27:03;9.80;99.90
12837;DHT22;6485;51.472;5.268;2022-11-11T17:29:31;9.70;99.90
12837;DHT22;6485;51.472;5.268;2022-11-11T17:32:04;9.70;99.90
12837;DHT22;6485;51.472;5.268;2022-11-11T17:34:32;9.70;99.90
12837;DHT22;6485;51.472;5.268;2022-11-11T17:37:00;9.60;99.90
12837;DHT22;6485;51.472;5.268;2022-11-11T17:39:28;9.60;99.90
12837;DHT22;6485;51.472;5.268;2022-11-11T17:41:58;9.60;99.90
12837;DHT22;6485;51.472;5.268;2022-11-11T17:44:26;9.60;99.90
12837;DHT22;6485;51.472;5.268;2022-11-11T17:46:54;9.60;99.90
12837;DHT22;6485;51.472;5.268;2022-11-11T17:49:23;9.50;99.90
12837;DHT22;6485;51.472;5.268;2022-11-11T17:52:14;9.40;99.90
12837;DHT22;6485;51.472;5.268;2022-11-11T17:54:43;9.40;99.90
12837;DHT22;6485;51.472;5.268;2022-11-11T17:57:12;9.30;99.90
12837;DHT22;6485;51.472;5.268;2022-11-11T17:59:41;9.30;99.90
12837;DHT22;6485;51.472;5.268;2022-11-11T18:02:11;9.30;99.90
12837;DHT22;6485;51.472;5.268;2022-11-11T18:04:41;9.20;99.90
12837;DHT22;6485;51.472;5.268;2022-11-11T18:07:12;9.10;99.90
12837;DHT22;6485;51.472;5.268;2022-11-11T18:09:47;9.10;99.90
12837;DHT22;6485;51.472;5.268;2022-11-11T18:12:18;9.10;99.90
12837;DHT22;6485;51.472;5.268;2022-11-11T18:14:46;9.10;99.90
12837;DHT22;6485;51.472;5.268;2022-11-11T18:17:15;9.10;99.90
12837;DHT22;6485;51.472;5.268;2022-11-11T18:19:44;9.10;99.90
12837;DHT22;6485;51.472;5.268;2022-11-11T18:22:12;9.00;99.90
12837;DHT22;6485;51.472;5.268;2022-11-11T18:24:41;9.00;99.90
12837;DHT22;6485;51.472;5.268;2022-11-11T18:27:10;9.00;99.90
12837;DHT22;6485;51.472;5.268;2022-11-11T18:29:40;9.00;99.90
12837;DHT22;6485;51.472;5.268;2022-11-11T18:32:08;9.00;99.90
12837;DHT22;6485;51.472;5.268;2022-11-11T18:34:37;8.90;99.90
12837;DHT22;6485;51.472;5.268;2022-11-11T18:37:06;8.90;99.90
12837;DHT22;6485;51.472;5.268;2022-11-11T18:39:34;8.80;99.90
12837;DHT22;6485;51.472;5.268;2022-11-11T18:42:02;8.80;99.90
12837;DHT22;6485;51.472;5.268;2022-11-11T18:44:31;8.80;99.90
12837;DHT22;6485;51.472;5.268;2022-11-11T18:47:00;8.70;99.90
12837;DHT22;6485;51.472;5.268;2022-11-11T18:49:29;8.70;99.90
12837;DHT22;6485;51.472;5.268;2022-11-11T18:51:58;8.70;99.90
12837;DHT22;6485;51.472;5.268;2022-11-11T18:54:26;8.70;99.90
12837;DHT22;6485;51.472;5.268;2022-11-11T18:56:57;8.60;99.90
12837;DHT22;6485;51.472;5.268;2022-11-11T18:59:26;8.60;99.90
12837;DHT22;6485;51.472;5.268;2022-11-11T19:01:54;8.50;99.90
12837;DHT22;6485;51.472;5.268;2022-11-11T19:04:24;8.50;99.90
12837;DHT22;6485;51.472;5.268;2022-11-11T19:06:52;8.50;99.90
12837;DHT22;6485;51.472;5.268;2022-11-11T19:09:22;8.40;99.90
12837;DHT22;6485;51.472;5.268;2022-11-11T19:11:53;8.40;99.90
12837;DHT22;6485;51.472;5.268;2022-11-11T19:14:23;8.40;99.90
12837;DHT22;6485;51.472;5.268;2022-11-11T19:16:53;8.40;99.90
12837;DHT22;6485;51.472;5.268;2022-11-11T19:19:27;8.30;99.90
12837;DHT22;6485;51.472;5.268;2022-11-11T19:21:56;8.30;99.90
12837;DHT22;6485;51.472;5.268;2022-11-11T19:24:37;8.30;99.90
12837;DHT22;6485;51.472;5.268;2022-11-11T19:27:05;8.20;99.90
12837;DHT22;6485;51.472;5.268;2022-11-11T19:29:33;8.20;99.90
12837;DHT22;6485;51.472;5.268;2022-11-11T19:32:04;8.20;99.90
12837;DHT22;6485;51.472;5.268;2022-11-11T19:34:34;8.10;99.90
12837;DHT22;6485;51.472;5.268;2022-11-11T19:37:02;8.10;99.90
12837;DHT22;6485;51.472;5.268;2022-11-11T19:39:35;8.10;99.90
12837;DHT22;6485;51.472;5.268;2022-11-11T19:42:05;8.00;99.90
12837;DHT22;6485;51.472;5.268;2022-11-11T19:44:35;8.10;99.90
12837;DHT22;6485;51.472;5.268;2022-11-11T19:47:06;8.10;99.90
12837;DHT22;6485;51.472;5.268;2022-11-11T19:49:37;8.10;99.90
12837;DHT22;6485;51.472;5.268;2022-11-11T19:52:07;8.10;99.90
12837;DHT22;6485;51.472;5.268;2022-11-11T19:54:39;8.00;99.90
12837;DHT22;6485;51.472;5.268;2022-11-11T19:57:07;8.00;99.90
12837;DHT22;6485;51.472;5.268;2022-11-11T19:59:36;8.10;99.90
12837;DHT22;6485;51.472;5.268;2022-11-11T20:02:04;8.10;99.90
12837;DHT22;6485;51.472;5.268;2022-11-11T20:04:33;8.10;99.90
12837;DHT22;6485;51.472;5.268;2022-11-11T20:07:02;8.10;99.90
12837;DHT22;6485;51.472;5.268;2022-11-11T20:09:31;8.10;99.90
12837;DHT22;6485;51.472;5.268;2022-11-11T20:12:01;8.00;99.90
12837;DHT22;6485;51.472;5.268;2022-11-11T20:14:29;8.00;99.90
12837;DHT22;6485;51.472;5.268;2022-11-11T20:16:58;8.00;99.90
12837;DHT22;6485;51.472;5.268;2022-11-11T20:19:26;8.00;99.90
12837;DHT22;6485;51.472;5.268;2022-11-11T20:21:55;8.00;99.90
12837;DHT22;6485;51.472;5.268;2022-11-11T20:24:26;8.00;99.90
12837;DHT22;6485;51.472;5.268;2022-11-11T20:27:01;7.90;99.90
12837;DHT22;6485;51.472;5.268;2022-11-11T20:29:32;8.00;99.90
12837;DHT22;6485;51.472;5.268;2022-11-11T20:32:01;8.00;99.90
12837;DHT22;6485;51.472;5.268;2022-11-11T20:34:29;8.10;99.90
12837;DHT22;6485;51.472;5.268;2022-11-11T20:36:59;8.00;99.90
12837;DHT22;6485;51.472;5.268;2022-11-11T20:39:29;7.90;99.90
12837;DHT22;6485;51.472;5.268;2022-11-11T20:41:57;7.90;99.90
12837;DHT22;6485;51.472;5.268;2022-11-11T20:44:26;7.90;99.90
12837;DHT22;6485;51.472;5.268;2022-11-11T20:46:54;7.90;99.90
12837;DHT22;6485;51.472;5.268;2022-11-11T20:49:23;7.90;99.90
12837;DHT22;6485;51.472;5.268;2022-11-11T20:51:51;7.90;99.90
12837;DHT22;6485;51.472;5.268;2022-11-11T20:54:19;7.80;99.90
12837;DHT22;6485;51.472;5.268;2022-11-11T20:56:49;7.80;99.90
12837;DHT22;6485;51.472;5.268;2022-11-11T20:59:17;7.80;99.90
12837;DHT22;6485;51.472;5.268;2022-11-11T21:01:46;7.80;99.90
12837;DHT22;6485;51.472;5.268;2022-11-11T21:04:14;7.80;99.90
12837;DHT22;6485;51.472;5.268;2022-11-11T21:06:43;7.80;99.90
12837;DHT22;6485;51.472;5.268;2022-11-11T21:09:14;7.70;99.90
12837;DHT22;6485;51.472;5.268;2022-11-11T21:11:43;7.70;99.90
12837;DHT22;6485;51.472;5.268;2022-11-11T21:14:14;7.70;99.90
12837;DHT22;6485;51.472;5.268;2022-11-11T21:16:42;7.70;99.90
12837;DHT22;6485;51.472;5.268;2022-11-11T21:19:11;7.70;99.90
12837;DHT22;6485;51.472;5.268;2022-11-11T21:21:41;7.70;99.90
12837;DHT22;6485;51.472;5.268;2022-11-11T21:24:12;7.70;99.90
12837;DHT22;6485;51.472;5.268;2022-11-11T21:26:40;7.70;99.90
12837;DHT22;6485;51.472;5.268;2022-11-11T21:29:09;7.70;99.90
12837;DHT22;6485;51.472;5.268;2022-11-11T21:31:40;7.70;99.90
12837;DHT22;6485;51.472;5.268;2022-11-11T21:34:10;7.70;99.90
12837;DHT22;6485;51.472;5.268;2022-11-11T21:36:40;7.70;99.90
12837;DHT22;6485;51.472;5.268;2022-11-11T21:39:09;7.60;99.90
12837;DHT22;6485;51.472;5.268;2022-11-11T21:41:41;7.60;99.90
12837;DHT22;6485;51.472;5.268;2022-11-11T21:44:09;7.60;99.90
12837;DHT22;6485;51.472;5.268;2022-11-11T21:46:37;7.60;99.90
12837;DHT22;6485;51.472;5.268;2022-11-11T21:49:09;7.50;99.90
12837;DHT22;6485;51.472;5.268;2022-11-11T21:51:38;7.40;99.90
12837;DHT22;6485;51.472;5.268;2022-11-11T21:54:07;7.40;99.90
12837;DHT22;6485;51.472;5.268;2022-11-11T21:56:36;7.40;99.90
12837;DHT22;6485;51.472;5.268;2022-11-11T21:59:05;7.30;99.90
12837;DHT22;6485;51.472;5.268;2022-11-11T22:01:33;7.30;99.90
12837;DHT22;6485;51.472;5.268;2022-11-11T22:04:03;7.20;99.90
12837;DHT22;6485;51.472;5.268;2022-11-11T22:06:33;7.20;99.90
12837;DHT22;6485;51.472;5.268;2022-11-11T22:09:02;7.20;99.90
12837;DHT22;6485;51.472;5.268;2022-11-11T22:11:31;7.10;99.90
12837;DHT22;6485;51.472;5.268;2022-11-11T22:13:59;7.00;99.90
12837;DHT22;6485;51.472;5.268;2022-11-11T22:16:28;6.90;99.90
12837;DHT22;6485;51.472;5.268;2022-11-11T22:19:00;6.90;99.90
12837;DHT22;6485;51.472;5.268;2022-11-11T22:21:29;6.80;99.90
12837;DHT22;6485;51.472;5.268;2022-11-11T22:24:00;6.80;99.90
12837;DHT22;6485;51.472;5.268;2022-11-11T22:26:30;6.80;99.90
12837;DHT22;6485;51.472;5.268;2022-11-11T22:28:58;6.70;99.90
12837;DHT22;6485;51.472;5.268;2022-11-11T22:31:26;6.70;99.90
12837;DHT22;6485;51.472;5.268;2022-11-11T22:33:55;6.70;99.90
12837;DHT22;6485;51.472;5.268;2022-11-11T22:36:26;6.70;99.90
12837;DHT22;6485;51.472;5.268;2022-11-11T22:38:54;6.60;99.90
12837;DHT22;6485;51.472;5.268;2022-11-11T22:41:24;6.60;99.90
12837;DHT22;6485;51.472;5.268;2022-11-11T22:43:53;6.50;99.90
12837;DHT22;6485;51.472;5.268;2022-11-11T22:46:27;6.50;99.90
12837;DHT22;6485;51.472;5.268;2022-11-11T22:48:56;6.50;99.90
12837;DHT22;6485;51.472;5.268;2022-11-11T22:51:25;6.50;99.90
12837;DHT22;6485;51.472;5.268;2022-11-11T22:53:55;6.50;99.90
12837;DHT22;6485;51.472;5.268;2022-11-11T22:56:25;6.40;99.90
12837;DHT22;6485;51.472;5.268;2022-11-11T22:58:54;6.40;99.90
12837;DHT22;6485;51.472;5.268;2022-11-11T23:01:23;6.40;99.90
12837;DHT22;6485;51.472;5.268;2022-11-11T23:03:56;6.40;99.90
12837;DHT22;6485;51.472;5.268;2022-11-11T23:06:26;6.40;99.90
12837;DHT22;6485;51.472;5.268;2022-11-11T23:08:54;6.30;99.90
12837;DHT22;6485;51.472;5.268;2022-11-11T23:11:23;6.30;99.90
12837;DHT22;6485;51.472;5.268;2022-11-11T23:13:56;6.30;99.90
12837;DHT22;6485;51.472;5.268;2022-11-11T23:16:24;6.20;99.90
12837;DHT22;6485;51.472;5.268;2022-11-11T23:18:52;6.20;99.90
12837;DHT22;6485;51.472;5.268;2022-11-11T23:21:21;6.10;99.90
12837;DHT22;6485;51.472;5.268;2022-11-11T23:23:50;6.20;99.90
12837;DHT22;6485;51.472;5.268;2022-11-11T23:26:19;6.20;99.90
12837;DHT22;6485;51.472;5.268;2022-11-11T23:28:48;6.10;99.90
12837;DHT22;6485;51.472;5.268;2022-11-11T23:31:19;6.10;99.90
12837;DHT22;6485;51.472;5.268;2022-11-11T23:33:48;6.20;99.90
12837;DHT22;6485;51.472;5.268;2022-11-11T23:36:17;6.10;99.90
12837;DHT22;6485;51.472;5.268;2022-11-11T23:38:45;6.00;99.90
12837;DHT22;6485;51.472;5.268;2022-11-11T23:41:14;6.00;99.90
12837;DHT22;6485;51.472;5.268;2022-11-11T23:43:42;6.10;99.90
12837;DHT22;6485;51.472;5.268;2022-11-11T23:46:10;6.10;99.90
12837;DHT22;6485;51.472;5.268;2022-11-11T23:48:40;6.00;99.90
12837;DHT22;6485;51.472;5.268;2022-11-11T23:51:09;6.00;99.90
12837;DHT22;6485;51.472;5.268;2022-11-11T23:53:37;5.90;99.90
12837;DHT22;6485;51.472;5.268;2022-11-11T23:56:05;6.00;99.90
12837;DHT22;6485;51.472;5.268;2022-11-11T23:58:33;5.90;99.90
